createdAt,value
2018-06-22T00:00:31.448Z,2.80
2018-06-22T00:05:26.050Z,2.67
2018-06-22T00:10:20.764Z,2.60
2018-06-22T00:15:15.576Z,2.63
2018-06-22T00:20:10.047Z,2.20
2018-06-22T00:25:04.968Z,2.00
2018-06-22T00:29:59.977Z,2.37
2018-06-22T00:34:54.580Z,2.40
2018-06-22T00:39:49.090Z,2.13
2018-06-22T00:44:43.737Z,2.80
2018-06-22T00:49:38.480Z,2.17
2018-06-22T00:54:32.670Z,2.30
2018-06-22T00:59:27.165Z,2.47
2018-06-22T01:04:21.717Z,1.97
2018-06-22T01:09:16.310Z,2.23
2018-06-22T01:14:10.829Z,1.90
2018-06-22T01:19:05.759Z,2.10
2018-06-22T01:24:00.595Z,2.23
2018-06-22T01:29:02.227Z,2.27
2018-06-22T01:33:56.893Z,2.60
2018-06-22T01:38:51.743Z,2.00
2018-06-22T01:43:46.161Z,2.43
2018-06-22T01:48:40.940Z,2.30
2018-06-22T01:53:35.658Z,1.90
2018-06-22T01:58:30.631Z,2.20
2018-06-22T02:03:26.072Z,2.20
2018-06-22T02:08:20.778Z,2.60
2018-06-22T02:13:15.532Z,2.53
2018-06-22T02:18:11.054Z,2.30
2018-06-22T02:23:06.270Z,2.13
2018-06-22T02:28:00.724Z,2.30
2018-06-22T02:32:55.339Z,2.33
2018-06-22T02:37:50.169Z,2.30
2018-06-22T02:42:44.736Z,2.50
2018-06-22T02:47:38.967Z,2.57
2018-06-22T02:52:34.012Z,2.47
2018-06-22T02:57:29.867Z,2.10
2018-06-22T03:02:24.446Z,2.17
2018-06-22T03:07:19.215Z,2.20
2018-06-22T03:12:13.595Z,2.60
2018-06-22T03:17:08.326Z,2.57
2018-06-22T03:22:03.122Z,2.83
2018-06-22T03:26:58.402Z,2.07
2018-06-22T03:31:53.284Z,2.30
2018-06-22T03:36:47.955Z,2.37
2018-06-22T03:41:42.454Z,2.40
2018-06-22T03:46:37.037Z,2.30
2018-06-22T03:51:31.692Z,3.03
2018-06-22T03:56:26.180Z,2.50
2018-06-22T04:01:22.309Z,2.30
2018-06-22T04:06:17.076Z,2.20
2018-06-22T04:11:11.894Z,1.83
2018-06-22T04:16:06.460Z,2.50
2018-06-22T04:21:01.636Z,2.20
2018-06-22T04:25:56.342Z,2.30
2018-06-22T04:30:50.812Z,2.73
2018-06-22T04:35:45.343Z,3.13
2018-06-22T04:40:39.812Z,2.40
2018-06-22T04:45:34.394Z,2.20
2018-06-22T04:50:29.212Z,2.13
2018-06-22T04:55:23.667Z,2.30
2018-06-22T05:00:18.129Z,2.30
2018-06-22T05:05:12.601Z,2.43
2018-06-22T05:10:07.070Z,1.97
2018-06-22T05:15:01.554Z,2.33
2018-06-22T05:19:56.051Z,2.50
2018-06-22T05:24:50.553Z,2.63
2018-06-22T05:29:44.973Z,2.40
2018-06-22T05:34:39.441Z,2.40
2018-06-22T05:39:33.964Z,1.90
2018-06-22T05:44:28.461Z,2.20
2018-06-22T05:49:22.949Z,2.10
2018-06-22T05:54:17.425Z,2.17
2018-06-22T05:59:11.774Z,2.30
2018-06-22T06:04:06.272Z,2.40
2018-06-22T06:09:00.946Z,1.97
2018-06-22T06:13:55.132Z,2.73
2018-06-22T06:18:51.752Z,1.57
2018-06-22T06:23:46.250Z,2.17
2018-06-22T06:28:40.954Z,3.47
2018-06-22T06:33:35.421Z,2.03
2018-06-22T06:38:29.653Z,2.87
2018-06-22T06:43:24.130Z,2.33
2018-06-22T06:48:18.856Z,2.03
2018-06-22T06:53:14.035Z,2.30
2018-06-22T06:58:08.539Z,2.27
2018-06-22T07:03:03.329Z,2.20
2018-06-22T07:07:57.810Z,2.53
2018-06-22T07:12:52.304Z,2.63
2018-06-22T07:17:46.800Z,2.80
2018-06-22T07:22:41.992Z,3.13
2018-06-22T07:27:36.456Z,2.10
2018-06-22T07:32:30.946Z,3.00
2018-06-22T07:37:25.397Z,3.10
2018-06-22T07:42:20.362Z,3.07
2018-06-22T07:47:15.481Z,2.47
2018-06-22T07:52:10.117Z,2.73
2018-06-22T07:57:04.923Z,2.80
2018-06-22T08:01:59.602Z,2.53
2018-06-22T08:06:54.260Z,2.63
2018-06-22T08:11:48.733Z,2.37
2018-06-22T08:16:43.347Z,2.30
2018-06-22T08:21:37.832Z,2.40
2018-06-22T08:26:32.490Z,2.67
2018-06-22T08:31:27.355Z,2.80
2018-06-22T08:36:21.862Z,2.40
2018-06-22T08:41:16.397Z,2.40
2018-06-22T08:46:10.886Z,2.53
2018-06-22T08:51:05.364Z,3.17
2018-06-22T08:55:59.671Z,3.13
2018-06-22T09:00:54.073Z,2.53
2018-06-22T09:05:48.349Z,2.60
2018-06-22T09:10:42.843Z,2.70
2018-06-22T09:15:37.303Z,2.50
2018-06-22T09:20:31.801Z,3.17
2018-06-22T09:25:26.437Z,3.40
2018-06-22T09:30:21.210Z,3.20
2018-06-22T09:35:15.411Z,2.70
2018-06-22T09:40:10.544Z,3.00
2018-06-22T09:45:05.229Z,2.63
2018-06-22T09:49:59.960Z,2.33
2018-06-22T09:54:54.487Z,2.77
2018-06-22T09:59:50.313Z,3.40
2018-06-22T10:04:44.885Z,3.10
2018-06-22T10:09:40.581Z,3.63
2018-06-22T10:14:35.902Z,4.00
2018-06-22T10:19:31.219Z,2.97
2018-06-22T10:24:26.226Z,2.70
2018-06-22T10:29:21.133Z,2.70
2018-06-22T10:34:16.306Z,3.27
2018-06-22T10:39:12.909Z,3.10
2018-06-22T10:44:08.531Z,3.43
2018-06-22T10:49:03.658Z,3.33
2018-06-22T10:53:58.645Z,2.90
2018-06-22T10:58:53.448Z,3.50
2018-06-22T11:03:48.070Z,3.27
2018-06-22T11:08:43.191Z,2.90
2018-06-22T11:13:37.923Z,3.00
2018-06-22T11:18:32.638Z,2.80
2018-06-22T11:23:27.783Z,2.83
2018-06-22T11:28:22.579Z,2.60
2018-06-22T11:33:21.022Z,2.63
2018-06-22T11:38:21.772Z,2.47
2018-06-22T11:43:22.775Z,2.60
2018-06-22T11:48:17.287Z,2.80
2018-06-22T11:53:12.459Z,3.10
2018-06-22T11:58:07.310Z,2.80
2018-06-22T12:03:01.562Z,3.03
2018-06-22T12:07:56.419Z,3.43
2018-06-22T12:12:52.114Z,2.80
2018-06-22T12:17:46.748Z,2.30
2018-06-22T12:22:42.084Z,2.53
2018-06-22T12:27:36.619Z,2.00
2018-06-22T12:32:31.126Z,2.03
2018-06-22T12:37:25.952Z,2.57
2018-06-22T12:42:20.480Z,2.53
2018-06-22T12:47:15.205Z,3.00
2018-06-22T12:52:09.822Z,2.30
2018-06-22T12:57:04.461Z,2.47
2018-06-22T13:01:58.668Z,2.40
2018-06-22T13:06:53.474Z,2.50
2018-06-22T13:11:49.167Z,2.43
2018-06-22T13:16:43.774Z,2.87
2018-06-22T13:21:54.537Z,2.70
2018-06-22T13:26:49.576Z,2.90
2018-06-22T13:31:44.861Z,2.13
2018-06-22T13:36:39.895Z,2.57
2018-06-22T13:41:37.007Z,2.20
2018-06-22T13:46:32.472Z,2.50
2018-06-22T13:51:30.274Z,2.37
2018-06-22T13:56:24.761Z,2.70
2018-06-22T14:01:19.559Z,2.87
2018-06-22T14:06:19.214Z,2.50
2018-06-22T14:11:13.664Z,2.30
2018-06-22T14:16:09.142Z,2.10
2018-06-22T14:21:03.935Z,2.50
2018-06-22T14:25:58.483Z,2.43
2018-06-22T14:30:53.059Z,2.30
2018-06-22T14:35:47.644Z,2.23
2018-06-22T14:40:41.835Z,2.50
2018-06-22T14:45:36.332Z,2.23
2018-06-22T14:50:30.830Z,2.33
2018-06-22T14:55:30.544Z,2.10
2018-06-22T15:00:30.140Z,2.10
2018-06-22T15:05:30.139Z,1.80
2018-06-22T15:10:25.305Z,1.90
2018-06-22T15:15:19.750Z,2.40
2018-06-22T15:20:14.395Z,1.97
2018-06-22T15:25:08.884Z,2.20
2018-06-22T15:30:04.031Z,2.40
2018-06-22T15:35:03.811Z,1.33
2018-06-22T15:40:03.584Z,1.70
2018-06-22T15:45:04.691Z,1.90
2018-06-22T15:50:04.729Z,1.53
2018-06-22T15:55:05.333Z,1.93
2018-06-22T15:59:59.992Z,2.20
2018-06-22T16:04:54.631Z,2.20
2018-06-22T16:09:54.499Z,1.97
2018-06-22T16:14:54.660Z,2.00
2018-06-22T16:19:54.511Z,2.10
2018-06-22T16:24:54.634Z,1.90
2018-06-22T16:29:49.414Z,2.10
2018-06-22T16:34:44.087Z,1.50
2018-06-22T16:39:39.147Z,1.97
2018-06-22T16:44:34.199Z,1.47
2018-06-22T16:49:29.377Z,1.70
2018-06-22T16:54:24.288Z,1.70
2018-06-22T16:59:18.981Z,1.80
2018-06-22T17:04:15.932Z,2.77
2018-06-22T17:09:16.014Z,2.00
2018-06-22T17:14:15.895Z,1.87
2018-06-22T17:19:13.221Z,2.07
2018-06-22T17:24:08.094Z,1.83
2018-06-22T17:29:02.566Z,2.10
2018-06-22T17:33:58.450Z,2.10
2018-06-22T17:38:53.034Z,1.80
2018-06-22T17:43:47.523Z,2.80
2018-06-22T17:48:42.127Z,2.63
2018-06-22T17:53:38.139Z,2.40
2018-06-22T17:58:32.812Z,2.00
2018-06-22T18:03:35.693Z,2.07
2018-06-22T18:08:36.135Z,1.80
2018-06-22T18:13:30.722Z,2.30
2018-06-22T18:18:25.947Z,1.93
2018-06-22T18:23:20.462Z,2.50
2018-06-22T18:28:15.094Z,2.20
2018-06-22T18:33:09.876Z,2.20
2018-06-22T18:38:04.324Z,2.10
2018-06-22T18:42:58.822Z,2.20
2018-06-22T18:47:53.458Z,2.10
2018-06-22T18:52:53.230Z,2.13
2018-06-22T18:57:53.642Z,2.37
2018-06-22T19:02:53.560Z,2.57
2018-06-22T19:07:48.198Z,2.40
2018-06-22T19:12:42.871Z,2.30
2018-06-22T19:17:37.418Z,2.17
2018-06-22T19:22:32.817Z,1.93
2018-06-22T19:27:29.164Z,2.53
2018-06-22T19:32:23.847Z,2.20
2018-06-22T19:37:18.644Z,2.53
2018-06-22T19:42:13.030Z,2.27
2018-06-22T19:47:12.707Z,2.30
2018-06-22T19:52:12.479Z,1.97
2018-06-22T19:57:07.373Z,2.53
2018-06-22T20:02:01.885Z,2.07
2018-06-22T20:06:56.557Z,2.47
2018-06-22T20:11:51.090Z,3.03
2018-06-22T20:16:45.556Z,2.53
2018-06-22T20:21:40.336Z,2.33
2018-06-22T20:26:34.844Z,2.83
2018-06-22T20:31:35.282Z,3.10
2018-06-22T20:36:35.326Z,2.80
2018-06-22T20:41:35.520Z,3.47
2018-06-22T20:46:36.258Z,3.13
2018-06-22T20:51:38.759Z,3.47
2018-06-22T20:56:34.149Z,3.37
2018-06-22T21:01:29.548Z,3.37
2018-06-22T21:06:25.944Z,3.63
2018-06-22T21:11:24.117Z,3.97
2018-06-22T21:16:19.301Z,4.23
2018-06-22T21:21:19.834Z,3.83
2018-06-22T21:26:14.987Z,4.10
2018-06-22T21:31:14.938Z,3.77
2018-06-22T21:36:14.910Z,3.63
2018-06-22T21:41:10.370Z,4.33
2018-06-22T21:46:06.391Z,3.83
2018-06-22T21:51:01.464Z,3.70
2018-06-22T21:55:55.960Z,4.23
2018-06-22T22:00:53.252Z,4.80
2018-06-22T22:05:49.569Z,4.17
2018-06-22T22:10:49.791Z,3.97
2018-06-22T22:15:45.134Z,3.83
2018-06-22T22:20:39.833Z,4.30
2018-06-22T22:25:38.512Z,4.90
2018-06-22T22:30:34.687Z,4.23
2018-06-22T22:35:30.904Z,3.40
2018-06-22T22:40:27.166Z,4.40
2018-06-22T22:45:22.028Z,4.30
2018-06-22T22:50:17.965Z,4.47
2018-06-22T22:55:13.358Z,4.30
2018-06-22T23:00:09.388Z,4.17
2018-06-22T23:05:04.912Z,3.80
2018-06-22T23:10:00.512Z,4.37
2018-06-22T23:14:55.789Z,4.37
2018-06-22T23:19:50.606Z,3.90
2018-06-22T23:24:46.162Z,4.30
2018-06-22T23:29:41.017Z,4.83
2018-06-22T23:34:35.928Z,4.30
2018-06-22T23:39:31.284Z,4.83
2018-06-22T23:44:27.676Z,4.53
2018-06-22T23:49:22.522Z,5.57
2018-06-22T23:54:17.690Z,5.23
2018-06-22T23:59:14.319Z,4.93
